Airfield :
LOGIN :

Register | Disclaimer

   EN    FR    IT 

 










Legend :    VFR   Marginal VFR   IFR   Intensive IFR   Very Intensive IFR
Visi :
Ceiling :
>= 8 km
>= 3000ft
5 to 8 km
1000 to 3000 ft
1500m to 5 km
500 to 1000 ft
800 to 1500m
200 to 500 ft
< 800m
< 200 ft
Symbols :   Thunderstorms  Fog  Heavy snow  Heavy precipitations  Wind > 20 kt
SIGMETs :     Misc.  Thunderstorms  Icing  Turbulence  Mountain Waves  Volcanic Ashes






- Airport Elevation : 16 ft
- IATA code : SDR


LEXJ - Santander Cantabria

CURRENT METAR :
  • 300400Z 08007G19KT 9999 SCT042 BKN084 08/03 Q1022

EXPIRED METARs :
  • 300330Z VRB02KT 9999 BKN054 BKN070 07/04 Q1023
  • 300300Z AUTO 16002KT 6000 -RA BKN046 BKN060 07/04 Q1023
  • 300230Z AUTO 00000KT 8000 FEW049 BKN059 BKN080 06/04 Q1023
  • 300200Z AUTO VRB02KT 8000 FEW050 BKN078 07/04 Q1024
  • 300130Z AUTO 15006KT 9000 FEW050 07/04 Q1024

TAF TAF LEXJ
Valid from the 30 at 03:00 until the 31 at 03:00 UTC


300200Z 3003/3103 06009KT 9999 BKN030 TX10/3015Z TN02/3006Z
TEMPO 3003/3103 RA
PROB30
TEMPO 3003/3009 3000 RA BR BKN010
TEMPO 3009/3020 04015G25KT



MET'MAP, your aeronautical weather chart ! - Copyright ORBIFLY December 2007 - Disclaimer

ORBIFLY MET'MAP TEAM :

Programming & Development : Alexandra Zaïnal
Concept & original design : Baudouin d'Aumeries
Assistance for programming : Marc-Olivier Méhu
Technical & hardware support : Manuel Goepfert

Contact : metmap@orbifly.com




SOURCES & CREDITS :

   NOAA